sensor_id;sensor_type;location;lat;lon;timestamp;P1;durP1;ratioP1;P2;durP2;ratioP2
9449;SDS011;4763;48.370;10.874;2023-07-24T00:01:47;11.75;;;5.72;;
9449;SDS011;4763;48.370;10.874;2023-07-24T00:04:15;13.75;;;6.53;;
9449;SDS011;4763;48.370;10.874;2023-07-24T00:06:43;9.10;;;5.95;;
9449;SDS011;4763;48.370;10.874;2023-07-24T00:09:10;16.70;;;6.47;;
9449;SDS011;4763;48.370;10.874;2023-07-24T00:11:37;10.88;;;5.72;;
9449;SDS011;4763;48.370;10.874;2023-07-24T00:14:04;11.65;;;6.78;;
9449;SDS011;4763;48.370;10.874;2023-07-24T00:16:30;8.27;;;5.38;;
9449;SDS011;4763;48.370;10.874;2023-07-24T00:18:59;12.25;;;6.03;;
9449;SDS011;4763;48.370;10.874;2023-07-24T00:21:27;12.45;;;6.07;;
9449;SDS011;4763;48.370;10.874;2023-07-24T00:23:54;10.32;;;6.13;;
9449;SDS011;4763;48.370;10.874;2023-07-24T00:26:22;11.20;;;5.90;;
9449;SDS011;4763;48.370;10.874;2023-07-24T00:28:49;15.75;;;6.60;;
9449;SDS011;4763;48.370;10.874;2023-07-24T00:31:17;13.33;;;5.63;;
9449;SDS011;4763;48.370;10.874;2023-07-24T00:33:43;10.27;;;5.90;;
9449;SDS011;4763;48.370;10.874;2023-07-24T00:36:10;10.90;;;6.33;;
9449;SDS011;4763;48.370;10.874;2023-07-24T00:38:39;13.20;;;6.00;;
9449;SDS011;4763;48.370;10.874;2023-07-24T00:41:06;12.20;;;6.40;;
9449;SDS011;4763;48.370;10.874;2023-07-24T00:43:33;10.97;;;6.97;;
9449;SDS011;4763;48.370;10.874;2023-07-24T00:45:59;13.03;;;6.20;;
9449;SDS011;4763;48.370;10.874;2023-07-24T00:48:26;9.90;;;6.03;;
9449;SDS011;4763;48.370;10.874;2023-07-24T00:50:53;13.20;;;6.53;;
9449;SDS011;4763;48.370;10.874;2023-07-24T00:53:20;12.73;;;5.50;;
9449;SDS011;4763;48.370;10.874;2023-07-24T00:55:50;11.57;;;6.03;;
9449;SDS011;4763;48.370;10.874;2023-07-24T00:58:17;11.23;;;6.70;;
9449;SDS011;4763;48.370;10.874;2023-07-24T01:00:45;10.60;;;6.40;;
9449;SDS011;4763;48.370;10.874;2023-07-24T01:03:12;11.77;;;6.80;;
9449;SDS011;4763;48.370;10.874;2023-07-24T01:05:39;10.13;;;6.00;;
9449;SDS011;4763;48.370;10.874;2023-07-24T01:08:06;9.60;;;5.78;;
9449;SDS011;4763;48.370;10.874;2023-07-24T01:10:33;9.68;;;6.20;;
9449;SDS011;4763;48.370;10.874;2023-07-24T01:13:02;11.90;;;6.57;;
9449;SDS011;4763;48.370;10.874;2023-07-24T01:15:38;10.00;;;5.70;;
9449;SDS011;4763;48.370;10.874;2023-07-24T01:18:13;9.00;;;5.77;;
9449;SDS011;4763;48.370;10.874;2023-07-24T01:20:43;11.97;;;6.27;;
9449;SDS011;4763;48.370;10.874;2023-07-24T01:23:17;13.68;;;6.40;;
9449;SDS011;4763;48.370;10.874;2023-07-24T01:25:55;9.27;;;6.03;;
9449;SDS011;4763;48.370;10.874;2023-07-24T01:28:22;11.63;;;6.33;;
9449;SDS011;4763;48.370;10.874;2023-07-24T01:30:49;9.97;;;5.70;;
9449;SDS011;4763;48.370;10.874;2023-07-24T01:33:16;10.17;;;6.50;;
9449;SDS011;4763;48.370;10.874;2023-07-24T01:35:43;10.77;;;6.40;;
9449;SDS011;4763;48.370;10.874;2023-07-24T01:38:15;11.83;;;6.43;;
9449;SDS011;4763;48.370;10.874;2023-07-24T01:40:43;10.07;;;6.37;;
9449;SDS011;4763;48.370;10.874;2023-07-24T01:43:12;13.23;;;7.10;;
9449;SDS011;4763;48.370;10.874;2023-07-24T01:45:39;11.35;;;6.40;;
9449;SDS011;4763;48.370;10.874;2023-07-24T01:48:05;9.90;;;6.57;;
9449;SDS011;4763;48.370;10.874;2023-07-24T01:50:32;11.43;;;5.90;;
9449;SDS011;4763;48.370;10.874;2023-07-24T01:53:01;10.00;;;5.90;;
9449;SDS011;4763;48.370;10.874;2023-07-24T01:55:27;9.23;;;6.23;;
9449;SDS011;4763;48.370;10.874;2023-07-24T01:57:54;12.60;;;6.47;;
9449;SDS011;4763;48.370;10.874;2023-07-24T02:00:22;12.20;;;6.13;;
9449;SDS011;4763;48.370;10.874;2023-07-24T02:02:49;10.97;;;6.97;;
9449;SDS011;4763;48.370;10.874;2023-07-24T02:05:16;11.83;;;6.90;;
9449;SDS011;4763;48.370;10.874;2023-07-24T02:07:42;34.53;;;7.93;;
9449;SDS011;4763;48.370;10.874;2023-07-24T02:10:11;15.33;;;7.57;;
9449;SDS011;4763;48.370;10.874;2023-07-24T02:12:38;11.60;;;6.87;;
9449;SDS011;4763;48.370;10.874;2023-07-24T02:15:05;16.43;;;8.33;;
9449;SDS011;4763;48.370;10.874;2023-07-24T02:17:34;13.50;;;6.93;;
9449;SDS011;4763;48.370;10.874;2023-07-24T02:20:07;12.80;;;7.00;;
9449;SDS011;4763;48.370;10.874;2023-07-24T02:22:37;12.37;;;7.30;;
9449;SDS011;4763;48.370;10.874;2023-07-24T02:25:04;13.87;;;7.50;;
9449;SDS011;4763;48.370;10.874;2023-07-24T02:27:31;12.60;;;6.93;;
9449;SDS011;4763;48.370;10.874;2023-07-24T02:29:59;13.33;;;7.83;;
9449;SDS011;4763;48.370;10.874;2023-07-24T02:32:26;10.73;;;7.07;;
9449;SDS011;4763;48.370;10.874;2023-07-24T02:34:55;14.40;;;7.57;;
9449;SDS011;4763;48.370;10.874;2023-07-24T02:37:22;16.00;;;7.50;;
9449;SDS011;4763;48.370;10.874;2023-07-24T02:39:48;14.27;;;8.23;;
9449;SDS011;4763;48.370;10.874;2023-07-24T02:42:15;12.13;;;6.50;;
9449;SDS011;4763;48.370;10.874;2023-07-24T02:44:42;11.50;;;6.83;;
9449;SDS011;4763;48.370;10.874;2023-07-24T02:47:09;16.27;;;8.10;;
9449;SDS011;4763;48.370;10.874;2023-07-24T02:49:35;11.83;;;7.07;;
9449;SDS011;4763;48.370;10.874;2023-07-24T02:52:05;12.37;;;7.67;;
9449;SDS011;4763;48.370;10.874;2023-07-24T02:54:32;17.87;;;9.10;;
9449;SDS011;4763;48.370;10.874;2023-07-24T02:56:59;13.47;;;7.63;;
9449;SDS011;4763;48.370;10.874;2023-07-24T02:59:27;14.47;;;8.73;;
9449;SDS011;4763;48.370;10.874;2023-07-24T03:01:58;12.33;;;8.07;;
9449;SDS011;4763;48.370;10.874;2023-07-24T03:04:25;15.97;;;8.73;;
9449;SDS011;4763;48.370;10.874;2023-07-24T03:06:51;12.83;;;8.27;;
9449;SDS011;4763;48.370;10.874;2023-07-24T03:09:19;18.63;;;9.17;;
9449;SDS011;4763;48.370;10.874;2023-07-24T03:11:46;15.23;;;8.37;;
9449;SDS011;4763;48.370;10.874;2023-07-24T03:14:15;13.83;;;8.50;;
9449;SDS011;4763;48.370;10.874;2023-07-24T03:16:42;15.33;;;9.83;;
9449;SDS011;4763;48.370;10.874;2023-07-24T03:19:08;15.53;;;8.87;;
9449;SDS011;4763;48.370;10.874;2023-07-24T03:21:35;14.60;;;8.93;;
9449;SDS011;4763;48.370;10.874;2023-07-24T03:24:02;15.33;;;9.50;;
9449;SDS011;4763;48.370;10.874;2023-07-24T03:26:30;15.10;;;9.03;;
9449;SDS011;4763;48.370;10.874;2023-07-24T03:28:57;16.10;;;8.23;;
9449;SDS011;4763;48.370;10.874;2023-07-24T03:31:24;17.10;;;8.87;;
9449;SDS011;4763;48.370;10.874;2023-07-24T03:33:51;14.33;;;8.47;;
9449;SDS011;4763;48.370;10.874;2023-07-24T03:36:19;14.10;;;8.37;;
9449;SDS011;4763;48.370;10.874;2023-07-24T03:38:46;12.90;;;8.70;;
9449;SDS011;4763;48.370;10.874;2023-07-24T03:41:13;15.87;;;8.60;;
9449;SDS011;4763;48.370;10.874;2023-07-24T03:43:41;13.13;;;8.47;;
9449;SDS011;4763;48.370;10.874;2023-07-24T03:46:07;14.37;;;8.90;;
9449;SDS011;4763;48.370;10.874;2023-07-24T03:48:34;14.33;;;8.20;;
9449;SDS011;4763;48.370;10.874;2023-07-24T03:51:02;13.40;;;8.70;;
9449;SDS011;4763;48.370;10.874;2023-07-24T03:53:29;13.70;;;8.30;;
9449;SDS011;4763;48.370;10.874;2023-07-24T03:55:55;14.23;;;8.83;;
9449;SDS011;4763;48.370;10.874;2023-07-24T03:58:22;12.67;;;8.53;;
9449;SDS011;4763;48.370;10.874;2023-07-24T04:00:50;15.37;;;8.80;;
9449;SDS011;4763;48.370;10.874;2023-07-24T04:03:17;16.27;;;9.73;;
9449;SDS011;4763;48.370;10.874;2023-07-24T04:05:44;12.77;;;8.97;;
9449;SDS011;4763;48.370;10.874;2023-07-24T04:08:11;18.63;;;8.83;;
9449;SDS011;4763;48.370;10.874;2023-07-24T04:10:37;15.70;;;8.73;;
9449;SDS011;4763;48.370;10.874;2023-07-24T04:13:04;11.83;;;8.10;;
9449;SDS011;4763;48.370;10.874;2023-07-24T04:15:32;10.97;;;8.03;;
9449;SDS011;4763;48.370;10.874;2023-07-24T04:18:00;11.70;;;7.90;;
9449;SDS011;4763;48.370;10.874;2023-07-24T04:20:27;13.40;;;8.00;;
9449;SDS011;4763;48.370;10.874;2023-07-24T04:22:53;15.07;;;9.40;;
9449;SDS011;4763;48.370;10.874;2023-07-24T04:25:20;15.37;;;8.60;;
9449;SDS011;4763;48.370;10.874;2023-07-24T04:27:47;14.97;;;8.70;;
9449;SDS011;4763;48.370;10.874;2023-07-24T04:30:13;13.13;;;8.53;;
9449;SDS011;4763;48.370;10.874;2023-07-24T04:32:42;12.43;;;8.33;;
9449;SDS011;4763;48.370;10.874;2023-07-24T04:35:10;14.33;;;8.50;;
9449;SDS011;4763;48.370;10.874;2023-07-24T04:37:37;11.57;;;7.80;;
9449;SDS011;4763;48.370;10.874;2023-07-24T04:40:04;15.40;;;8.93;;
9449;SDS011;4763;48.370;10.874;2023-07-24T04:42:31;14.93;;;9.20;;
9449;SDS011;4763;48.370;10.874;2023-07-24T04:44:58;14.53;;;8.70;;
9449;SDS011;4763;48.370;10.874;2023-07-24T04:47:24;15.43;;;9.63;;
9449;SDS011;4763;48.370;10.874;2023-07-24T04:49:51;14.90;;;8.87;;
9449;SDS011;4763;48.370;10.874;2023-07-24T04:52:19;13.10;;;9.07;;
9449;SDS011;4763;48.370;10.874;2023-07-24T04:54:46;14.50;;;9.33;;
9449;SDS011;4763;48.370;10.874;2023-07-24T04:57:13;14.93;;;8.93;;
9449;SDS011;4763;48.370;10.874;2023-07-24T04:59:41;14.57;;;8.90;;
9449;SDS011;4763;48.370;10.874;2023-07-24T05:02:07;17.53;;;10.27;;
9449;SDS011;4763;48.370;10.874;2023-07-24T05:04:34;16.53;;;9.97;;
9449;SDS011;4763;48.370;10.874;2023-07-24T05:07:01;13.50;;;8.20;;
9449;SDS011;4763;48.370;10.874;2023-07-24T05:09:29;12.87;;;8.83;;
9449;SDS011;4763;48.370;10.874;2023-07-24T05:11:57;15.23;;;8.70;;
9449;SDS011;4763;48.370;10.874;2023-07-24T05:14:25;13.77;;;8.67;;
9449;SDS011;4763;48.370;10.874;2023-07-24T05:16:52;15.00;;;8.77;;
9449;SDS011;4763;48.370;10.874;2023-07-24T05:19:18;13.23;;;7.93;;
9449;SDS011;4763;48.370;10.874;2023-07-24T05:21:45;14.53;;;8.93;;
9449;SDS011;4763;48.370;10.874;2023-07-24T05:24:12;16.67;;;9.10;;
9449;SDS011;4763;48.370;10.874;2023-07-24T05:26:42;13.73;;;8.67;;
9449;SDS011;4763;48.370;10.874;2023-07-24T05:29:09;12.03;;;7.60;;
9449;SDS011;4763;48.370;10.874;2023-07-24T05:31:36;17.57;;;10.17;;
9449;SDS011;4763;48.370;10.874;2023-07-24T05:34:02;15.70;;;9.37;;
9449;SDS011;4763;48.370;10.874;2023-07-24T05:36:30;11.77;;;8.50;;
9449;SDS011;4763;48.370;10.874;2023-07-24T05:38:56;16.30;;;8.83;;
9449;SDS011;4763;48.370;10.874;2023-07-24T05:41:25;13.00;;;8.40;;
9449;SDS011;4763;48.370;10.874;2023-07-24T05:43:53;13.70;;;8.07;;
9449;SDS011;4763;48.370;10.874;2023-07-24T05:46:20;13.87;;;8.30;;
9449;SDS011;4763;48.370;10.874;2023-07-24T05:48:47;16.47;;;8.77;;
9449;SDS011;4763;48.370;10.874;2023-07-24T05:51:16;14.53;;;8.77;;
9449;SDS011;4763;48.370;10.874;2023-07-24T05:53:43;14.40;;;8.07;;
9449;SDS011;4763;48.370;10.874;2023-07-24T05:56:10;14.13;;;8.50;;
9449;SDS011;4763;48.370;10.874;2023-07-24T05:58:36;15.17;;;8.83;;
9449;SDS011;4763;48.370;10.874;2023-07-24T06:01:04;16.20;;;9.47;;
9449;SDS011;4763;48.370;10.874;2023-07-24T06:03:33;12.70;;;7.83;;
9449;SDS011;4763;48.370;10.874;2023-07-24T06:06:00;11.87;;;7.40;;
9449;SDS011;4763;48.370;10.874;2023-07-24T06:08:26;13.57;;;7.60;;
9449;SDS011;4763;48.370;10.874;2023-07-24T06:10:53;17.43;;;8.27;;
9449;SDS011;4763;48.370;10.874;2023-07-24T06:13:20;14.93;;;8.10;;
9449;SDS011;4763;48.370;10.874;2023-07-24T06:15:49;13.27;;;8.43;;
9449;SDS011;4763;48.370;10.874;2023-07-24T06:18:19;14.77;;;7.73;;
9449;SDS011;4763;48.370;10.874;2023-07-24T06:20:52;15.23;;;9.40;;
9449;SDS011;4763;48.370;10.874;2023-07-24T06:23:19;13.07;;;8.50;;
9449;SDS011;4763;48.370;10.874;2023-07-24T06:25:45;18.57;;;8.57;;
9449;SDS011;4763;48.370;10.874;2023-07-24T06:28:12;16.63;;;8.07;;
9449;SDS011;4763;48.370;10.874;2023-07-24T06:30:41;12.67;;;7.57;;
9449;SDS011;4763;48.370;10.874;2023-07-24T06:33:07;12.00;;;7.10;;
9449;SDS011;4763;48.370;10.874;2023-07-24T06:35:35;14.57;;;8.33;;
9449;SDS011;4763;48.370;10.874;2023-07-24T06:38:02;15.10;;;8.43;;
9449;SDS011;4763;48.370;10.874;2023-07-24T06:40:29;15.83;;;8.53;;
9449;SDS011;4763;48.370;10.874;2023-07-24T06:42:56;15.67;;;8.37;;
9449;SDS011;4763;48.370;10.874;2023-07-24T06:45:23;11.47;;;7.53;;
9449;SDS011;4763;48.370;10.874;2023-07-24T06:47:50;9.43;;;6.90;;
9449;SDS011;4763;48.370;10.874;2023-07-24T06:50:17;10.03;;;6.27;;
9449;SDS011;4763;48.370;10.874;2023-07-24T06:52:45;13.07;;;7.10;;
9449;SDS011;4763;48.370;10.874;2023-07-24T06:55:11;9.97;;;6.67;;
9449;SDS011;4763;48.370;10.874;2023-07-24T06:57:38;12.47;;;6.30;;
9449;SDS011;4763;48.370;10.874;2023-07-24T07:00:05;11.70;;;6.30;;
9449;SDS011;4763;48.370;10.874;2023-07-24T07:02:36;13.80;;;6.10;;
9449;SDS011;4763;48.370;10.874;2023-07-24T07:05:03;12.90;;;6.33;;
9449;SDS011;4763;48.370;10.874;2023-07-24T07:07:30;11.57;;;5.93;;
9449;SDS011;4763;48.370;10.874;2023-07-24T07:09:58;11.57;;;5.63;;
9449;SDS011;4763;48.370;10.874;2023-07-24T07:12:27;6.93;;;5.10;;
9449;SDS011;4763;48.370;10.874;2023-07-24T07:14:54;8.03;;;5.43;;
9449;SDS011;4763;48.370;10.874;2023-07-24T07:17:20;8.23;;;4.73;;
9449;SDS011;4763;48.370;10.874;2023-07-24T07:19:47;9.27;;;4.37;;
9449;SDS011;4763;48.370;10.874;2023-07-24T07:22:14;7.47;;;3.97;;
9449;SDS011;4763;48.370;10.874;2023-07-24T07:24:41;5.73;;;4.57;;
9449;SDS011;4763;48.370;10.874;2023-07-24T07:27:11;8.40;;;5.37;;
9449;SDS011;4763;48.370;10.874;2023-07-24T07:29:38;9.03;;;5.83;;
9449;SDS011;4763;48.370;10.874;2023-07-24T07:32:05;8.10;;;5.07;;
9449;SDS011;4763;48.370;10.874;2023-07-24T07:34:32;9.03;;;5.10;;
9449;SDS011;4763;48.370;10.874;2023-07-24T07:37:01;7.47;;;5.17;;
9449;SDS011;4763;48.370;10.874;2023-07-24T07:39:27;11.43;;;5.63;;
9449;SDS011;4763;48.370;10.874;2023-07-24T07:41:54;9.77;;;5.70;;
9449;SDS011;4763;48.370;10.874;2023-07-24T07:44:22;8.17;;;4.70;;
9449;SDS011;4763;48.370;10.874;2023-07-24T07:46:49;9.77;;;5.70;;
9449;SDS011;4763;48.370;10.874;2023-07-24T07:49:16;13.37;;;5.63;;
9449;SDS011;4763;48.370;10.874;2023-07-24T07:51:43;8.77;;;5.70;;
9449;SDS011;4763;48.370;10.874;2023-07-24T07:54:10;6.80;;;5.00;;
9449;SDS011;4763;48.370;10.874;2023-07-24T07:56:37;8.77;;;5.23;;
9449;SDS011;4763;48.370;10.874;2023-07-24T07:59:03;10.73;;;5.47;;
9449;SDS011;4763;48.370;10.874;2023-07-24T08:01:39;8.13;;;4.93;;
9449;SDS011;4763;48.370;10.874;2023-07-24T08:04:08;10.20;;;4.93;;
9449;SDS011;4763;48.370;10.874;2023-07-24T08:06:36;5.30;;;3.93;;
9449;SDS011;4763;48.370;10.874;2023-07-24T08:09:03;6.40;;;3.83;;
9449;SDS011;4763;48.370;10.874;2023-07-24T08:11:30;6.93;;;4.27;;
9449;SDS011;4763;48.370;10.874;2023-07-24T08:13:56;7.70;;;4.70;;
9449;SDS011;4763;48.370;10.874;2023-07-24T08:16:23;5.93;;;4.30;;
9449;SDS011;4763;48.370;10.874;2023-07-24T08:18:51;6.90;;;4.53;;
9449;SDS011;4763;48.370;10.874;2023-07-24T08:21:18;6.53;;;4.63;;
9449;SDS011;4763;48.370;10.874;2023-07-24T08:23:47;9.70;;;5.00;;
9449;SDS011;4763;48.370;10.874;2023-07-24T08:26:13;7.83;;;4.90;;
9449;SDS011;4763;48.370;10.874;2023-07-24T08:28:40;9.47;;;5.20;;
9449;SDS011;4763;48.370;10.874;2023-07-24T08:31:07;8.93;;;4.87;;
9449;SDS011;4763;48.370;10.874;2023-07-24T08:33:34;8.10;;;5.60;;
9449;SDS011;4763;48.370;10.874;2023-07-24T08:36:03;9.10;;;5.37;;
9449;SDS011;4763;48.370;10.874;2023-07-24T08:38:31;9.37;;;5.83;;
9449;SDS011;4763;48.370;10.874;2023-07-24T08:41:01;9.43;;;5.97;;
9449;SDS011;4763;48.370;10.874;2023-07-24T08:43:29;9.13;;;5.80;;
9449;SDS011;4763;48.370;10.874;2023-07-24T08:45:57;11.30;;;5.90;;
9449;SDS011;4763;48.370;10.874;2023-07-24T08:48:28;9.75;;;5.15;;
9449;SDS011;4763;48.370;10.874;2023-07-24T08:50:56;11.17;;;5.33;;
9449;SDS011;4763;48.370;10.874;2023-07-24T08:53:27;9.73;;;5.22;;
9449;SDS011;4763;48.370;10.874;2023-07-24T08:55:55;9.93;;;5.78;;
9449;SDS011;4763;48.370;10.874;2023-07-24T08:58:24;7.47;;;5.75;;
9449;SDS011;4763;48.370;10.874;2023-07-24T09:00:53;7.38;;;5.28;;
9449;SDS011;4763;48.370;10.874;2023-07-24T09:03:20;7.43;;;4.88;;
9449;SDS011;4763;48.370;10.874;2023-07-24T09:05:47;9.02;;;5.07;;
9449;SDS011;4763;48.370;10.874;2023-07-24T09:08:13;7.40;;;4.78;;
9449;SDS011;4763;48.370;10.874;2023-07-24T09:10:43;8.20;;;4.63;;
9449;SDS011;4763;48.370;10.874;2023-07-24T09:13:17;5.95;;;4.63;;
9449;SDS011;4763;48.370;10.874;2023-07-24T09:15:44;9.07;;;5.05;;
9449;SDS011;4763;48.370;10.874;2023-07-24T09:18:12;7.22;;;3.95;;
9449;SDS011;4763;48.370;10.874;2023-07-24T09:20:40;7.20;;;4.70;;
9449;SDS011;4763;48.370;10.874;2023-07-24T09:23:08;8.18;;;3.97;;
9449;SDS011;4763;48.370;10.874;2023-07-24T09:25:36;7.57;;;4.28;;
9449;SDS011;4763;48.370;10.874;2023-07-24T09:28:11;6.57;;;4.03;;
9449;SDS011;4763;48.370;10.874;2023-07-24T09:30:39;8.70;;;4.53;;
9449;SDS011;4763;48.370;10.874;2023-07-24T09:33:17;8.77;;;4.32;;
9449;SDS011;4763;48.370;10.874;2023-07-24T09:35:43;6.18;;;4.30;;
9449;SDS011;4763;48.370;10.874;2023-07-24T09:38:10;6.57;;;4.05;;
9449;SDS011;4763;48.370;10.874;2023-07-24T09:40:41;7.32;;;4.35;;
9449;SDS011;4763;48.370;10.874;2023-07-24T09:43:16;8.60;;;5.22;;
9449;SDS011;4763;48.370;10.874;2023-07-24T09:45:44;9.85;;;4.25;;
9449;SDS011;4763;48.370;10.874;2023-07-24T09:48:11;7.72;;;4.30;;
9449;SDS011;4763;48.370;10.874;2023-07-24T09:50:40;5.10;;;3.80;;
9449;SDS011;4763;48.370;10.874;2023-07-24T09:53:08;8.98;;;3.88;;
9449;SDS011;4763;48.370;10.874;2023-07-24T09:55:41;5.32;;;3.83;;
9449;SDS011;4763;48.370;10.874;2023-07-24T09:58:13;4.65;;;3.38;;
9449;SDS011;4763;48.370;10.874;2023-07-24T10:00:42;4.95;;;3.45;;
9449;SDS011;4763;48.370;10.874;2023-07-24T10:03:12;4.35;;;3.35;;
9449;SDS011;4763;48.370;10.874;2023-07-24T10:05:40;4.07;;;3.20;;
9449;SDS011;4763;48.370;10.874;2023-07-24T10:08:07;5.22;;;3.40;;
9449;SDS011;4763;48.370;10.874;2023-07-24T10:10:38;6.35;;;3.83;;
9449;SDS011;4763;48.370;10.874;2023-07-24T10:13:05;5.57;;;3.55;;
9449;SDS011;4763;48.370;10.874;2023-07-24T10:15:35;5.05;;;3.60;;
9449;SDS011;4763;48.370;10.874;2023-07-24T10:18:05;6.38;;;3.40;;
9449;SDS011;4763;48.370;10.874;2023-07-24T10:20:33;6.22;;;3.60;;
9449;SDS011;4763;48.370;10.874;2023-07-24T10:23:01;5.35;;;3.47;;
9449;SDS011;4763;48.370;10.874;2023-07-24T10:25:29;8.30;;;4.05;;
9449;SDS011;4763;48.370;10.874;2023-07-24T10:28:00;6.82;;;3.78;;
9449;SDS011;4763;48.370;10.874;2023-07-24T10:30:33;5.45;;;3.70;;
9449;SDS011;4763;48.370;10.874;2023-07-24T10:33:09;4.78;;;3.20;;
9449;SDS011;4763;48.370;10.874;2023-07-24T10:35:37;4.55;;;3.40;;
9449;SDS011;4763;48.370;10.874;2023-07-24T10:38:08;5.22;;;3.45;;
9449;SDS011;4763;48.370;10.874;2023-07-24T10:40:35;3.97;;;3.03;;
9449;SDS011;4763;48.370;10.874;2023-07-24T10:43:05;5.47;;;3.55;;
9449;SDS011;4763;48.370;10.874;2023-07-24T10:45:39;6.00;;;3.55;;
9449;SDS011;4763;48.370;10.874;2023-07-24T10:48:09;7.57;;;3.67;;
9449;SDS011;4763;48.370;10.874;2023-07-24T10:50:37;6.00;;;3.55;;
9449;SDS011;4763;48.370;10.874;2023-07-24T10:53:05;4.85;;;3.35;;
9449;SDS011;4763;48.370;10.874;2023-07-24T10:55:32;5.57;;;3.75;;
9449;SDS011;4763;48.370;10.874;2023-07-24T10:57:58;4.10;;;3.28;;
9449;SDS011;4763;48.370;10.874;2023-07-24T11:00:25;6.10;;;3.88;;
9449;SDS011;4763;48.370;10.874;2023-07-24T11:02:53;7.68;;;3.83;;
9449;SDS011;4763;48.370;10.874;2023-07-24T11:05:23;5.40;;;3.20;;
9449;SDS011;4763;48.370;10.874;2023-07-24T11:07:50;5.90;;;3.50;;
9449;SDS011;4763;48.370;10.874;2023-07-24T11:10:17;5.50;;;3.38;;
9449;SDS011;4763;48.370;10.874;2023-07-24T11:12:46;5.07;;;3.33;;
9449;SDS011;4763;48.370;10.874;2023-07-24T11:15:15;4.32;;;3.42;;
9449;SDS011;4763;48.370;10.874;2023-07-24T11:17:42;9.40;;;4.32;;
9449;SDS011;4763;48.370;10.874;2023-07-24T11:20:10;4.60;;;3.30;;
9449;SDS011;4763;48.370;10.874;2023-07-24T11:22:39;4.65;;;3.03;;
9449;SDS011;4763;48.370;10.874;2023-07-24T11:25:07;5.03;;;3.25;;
9449;SDS011;4763;48.370;10.874;2023-07-24T11:27:38;3.78;;;3.17;;
9449;SDS011;4763;48.370;10.874;2023-07-24T11:30:07;4.57;;;3.58;;
9449;SDS011;4763;48.370;10.874;2023-07-24T11:32:34;5.90;;;3.65;;
9449;SDS011;4763;48.370;10.874;2023-07-24T11:35:01;3.90;;;2.85;;
9449;SDS011;4763;48.370;10.874;2023-07-24T11:37:29;6.18;;;3.85;;
9449;SDS011;4763;48.370;10.874;2023-07-24T11:39:58;5.22;;;3.97;;
9449;SDS011;4763;48.370;10.874;2023-07-24T11:42:29;4.88;;;3.60;;
9449;SDS011;4763;48.370;10.874;2023-07-24T11:45:00;5.22;;;3.95;;
9449;SDS011;4763;48.370;10.874;2023-07-24T11:47:27;6.28;;;3.35;;
9449;SDS011;4763;48.370;10.874;2023-07-24T11:49:56;4.60;;;3.35;;
9449;SDS011;4763;48.370;10.874;2023-07-24T11:52:24;5.82;;;3.60;;
9449;SDS011;4763;48.370;10.874;2023-07-24T11:54:58;5.55;;;3.15;;
9449;SDS011;4763;48.370;10.874;2023-07-24T11:57:28;6.78;;;4.15;;
9449;SDS011;4763;48.370;10.874;2023-07-24T11:59:55;5.78;;;3.70;;
9449;SDS011;4763;48.370;10.874;2023-07-24T12:02:23;6.55;;;4.20;;
9449;SDS011;4763;48.370;10.874;2023-07-24T12:04:55;6.53;;;4.00;;
9449;SDS011;4763;48.370;10.874;2023-07-24T12:07:24;9.45;;;4.55;;
9449;SDS011;4763;48.370;10.874;2023-07-24T12:09:57;6.68;;;3.90;;
9449;SDS011;4763;48.370;10.874;2023-07-24T12:12:25;6.80;;;3.58;;
9449;SDS011;4763;48.370;10.874;2023-07-24T12:15:02;6.60;;;4.20;;
9449;SDS011;4763;48.370;10.874;2023-07-24T12:17:29;8.00;;;3.90;;
9449;SDS011;4763;48.370;10.874;2023-07-24T12:19:56;5.50;;;3.78;;
9449;SDS011;4763;48.370;10.874;2023-07-24T12:22:27;7.05;;;4.35;;
9449;SDS011;4763;48.370;10.874;2023-07-24T12:24:54;4.97;;;3.60;;
9449;SDS011;4763;48.370;10.874;2023-07-24T12:27:22;5.95;;;3.97;;
9449;SDS011;4763;48.370;10.874;2023-07-24T12:29:51;6.72;;;4.28;;
9449;SDS011;4763;48.370;10.874;2023-07-24T12:32:18;6.80;;;3.65;;
9449;SDS011;4763;48.370;10.874;2023-07-24T12:34:46;5.95;;;3.78;;
9449;SDS011;4763;48.370;10.874;2023-07-24T12:37:15;6.95;;;4.40;;
9449;SDS011;4763;48.370;10.874;2023-07-24T12:39:42;6.30;;;3.85;;
9449;SDS011;4763;48.370;10.874;2023-07-24T12:42:10;6.65;;;3.95;;
9449;SDS011;4763;48.370;10.874;2023-07-24T12:44:38;9.43;;;4.07;;
9449;SDS011;4763;48.370;10.874;2023-07-24T12:47:07;7.53;;;4.38;;
9449;SDS011;4763;48.370;10.874;2023-07-24T12:49:34;6.25;;;4.15;;
9449;SDS011;4763;48.370;10.874;2023-07-24T12:52:01;7.88;;;4.45;;
9449;SDS011;4763;48.370;10.874;2023-07-24T12:54:29;8.57;;;4.00;;
9449;SDS011;4763;48.370;10.874;2023-07-24T12:56:58;8.82;;;4.45;;
9449;SDS011;4763;48.370;10.874;2023-07-24T12:59:25;7.50;;;4.15;;
9449;SDS011;4763;48.370;10.874;2023-07-24T13:01:53;6.85;;;4.53;;
9449;SDS011;4763;48.370;10.874;2023-07-24T13:04:22;8.75;;;3.80;;
9449;SDS011;4763;48.370;10.874;2023-07-24T13:06:49;6.68;;;3.90;;
9449;SDS011;4763;48.370;10.874;2023-07-24T13:09:16;9.07;;;5.10;;
9449;SDS011;4763;48.370;10.874;2023-07-24T13:11:46;8.18;;;4.85;;
9449;SDS011;4763;48.370;10.874;2023-07-24T13:14:16;7.85;;;4.47;;
9449;SDS011;4763;48.370;10.874;2023-07-24T13:16:43;7.43;;;4.15;;
9449;SDS011;4763;48.370;10.874;2023-07-24T13:19:11;7.18;;;4.15;;
9449;SDS011;4763;48.370;10.874;2023-07-24T13:21:38;9.73;;;4.50;;
9449;SDS011;4763;48.370;10.874;2023-07-24T13:24:05;7.60;;;3.92;;
9449;SDS011;4763;48.370;10.874;2023-07-24T13:26:32;9.68;;;4.20;;
9449;SDS011;4763;48.370;10.874;2023-07-24T13:28:59;6.18;;;3.90;;
9449;SDS011;4763;48.370;10.874;2023-07-24T13:31:25;5.15;;;3.75;;
9449;SDS011;4763;48.370;10.874;2023-07-24T13:33:53;7.50;;;3.58;;
9449;SDS011;4763;48.370;10.874;2023-07-24T13:36:21;5.30;;;4.30;;
9449;SDS011;4763;48.370;10.874;2023-07-24T13:38:48;5.70;;;3.10;;
9449;SDS011;4763;48.370;10.874;2023-07-24T13:41:15;4.43;;;3.30;;
9449;SDS011;4763;48.370;10.874;2023-07-24T13:43:42;4.40;;;2.85;;
9449;SDS011;4763;48.370;10.874;2023-07-24T13:46:09;4.88;;;3.15;;
9449;SDS011;4763;48.370;10.874;2023-07-24T13:48:35;5.72;;;2.55;;
9449;SDS011;4763;48.370;10.874;2023-07-24T13:51:02;5.93;;;2.78;;
9449;SDS011;4763;48.370;10.874;2023-07-24T13:53:30;3.65;;;2.75;;
9449;SDS011;4763;48.370;10.874;2023-07-24T13:55:59;4.40;;;3.17;;
9449;SDS011;4763;48.370;10.874;2023-07-24T13:58:26;4.18;;;2.28;;
9449;SDS011;4763;48.370;10.874;2023-07-24T14:00:53;7.40;;;2.92;;
9449;SDS011;4763;48.370;10.874;2023-07-24T14:03:19;3.15;;;2.40;;
9449;SDS011;4763;48.370;10.874;2023-07-24T14:05:49;3.75;;;2.10;;
9449;SDS011;4763;48.370;10.874;2023-07-24T14:08:16;2.83;;;1.88;;
9449;SDS011;4763;48.370;10.874;2023-07-24T14:10:44;2.72;;;2.20;;
9449;SDS011;4763;48.370;10.874;2023-07-24T14:13:11;3.25;;;2.40;;
9449;SDS011;4763;48.370;10.874;2023-07-24T14:15:37;3.28;;;2.33;;
9449;SDS011;4763;48.370;10.874;2023-07-24T14:18:06;7.10;;;2.75;;
9449;SDS011;4763;48.370;10.874;2023-07-24T14:20:33;4.43;;;2.58;;
9449;SDS011;4763;48.370;10.874;2023-07-24T14:23:00;3.05;;;2.42;;
9449;SDS011;4763;48.370;10.874;2023-07-24T14:25:26;3.17;;;2.60;;
9449;SDS011;4763;48.370;10.874;2023-07-24T14:27:54;4.80;;;3.08;;
9449;SDS011;4763;48.370;10.874;2023-07-24T14:30:23;3.47;;;2.30;;
9449;SDS011;4763;48.370;10.874;2023-07-24T14:32:50;2.78;;;2.03;;
9449;SDS011;4763;48.370;10.874;2023-07-24T14:35:17;3.05;;;1.88;;
9449;SDS011;4763;48.370;10.874;2023-07-24T14:37:44;2.80;;;2.33;;
9449;SDS011;4763;48.370;10.874;2023-07-24T14:40:11;3.00;;;2.20;;
9449;SDS011;4763;48.370;10.874;2023-07-24T14:42:38;5.32;;;2.28;;
9449;SDS011;4763;48.370;10.874;2023-07-24T14:45:08;3.47;;;2.60;;
9449;SDS011;4763;48.370;10.874;2023-07-24T14:47:35;3.22;;;2.45;;
9449;SDS011;4763;48.370;10.874;2023-07-24T14:50:02;2.80;;;2.20;;
9449;SDS011;4763;48.370;10.874;2023-07-24T14:52:32;3.05;;;2.30;;
9449;SDS011;4763;48.370;10.874;2023-07-24T14:54:59;7.47;;;2.33;;
9449;SDS011;4763;48.370;10.874;2023-07-24T14:57:26;2.90;;;2.17;;
9449;SDS011;4763;48.370;10.874;2023-07-24T14:59:52;3.65;;;2.70;;